sensor_id;sensor_type;location;lat;lon;timestamp;P1;durP1;ratioP1;P2;durP2;ratioP2
4023;SDS011;2026;51.002;13.668;2022-08-14T00:03:19;14.87;;;12.77;;
4023;SDS011;2026;51.002;13.668;2022-08-14T00:08:31;12.40;;;11.10;;
4023;SDS011;2026;51.002;13.668;2022-08-14T00:13:45;15.23;;;11.97;;
4023;SDS011;2026;51.002;13.668;2022-08-14T00:18:53;16.37;;;12.77;;
4023;SDS011;2026;51.002;13.668;2022-08-14T00:24:18;16.77;;;12.87;;
4023;SDS011;2026;51.002;13.668;2022-08-14T00:29:29;14.07;;;12.57;;
4023;SDS011;2026;51.002;13.668;2022-08-14T00:34:41;13.40;;;12.00;;
4023;SDS011;2026;51.002;13.668;2022-08-14T00:39:48;14.60;;;12.00;;
4023;SDS011;2026;51.002;13.668;2022-08-14T00:44:52;14.03;;;12.17;;
4023;SDS011;2026;51.002;13.668;2022-08-14T00:49:55;13.13;;;11.70;;
4023;SDS011;2026;51.002;13.668;2022-08-14T00:55:00;15.20;;;12.37;;
4023;SDS011;2026;51.002;13.668;2022-08-14T01:00:06;14.73;;;12.67;;
4023;SDS011;2026;51.002;13.668;2022-08-14T01:05:32;13.37;;;12.00;;
4023;SDS011;2026;51.002;13.668;2022-08-14T01:10:54;14.60;;;11.53;;
4023;SDS011;2026;51.002;13.668;2022-08-14T01:15:58;14.70;;;13.10;;
4023;SDS011;2026;51.002;13.668;2022-08-14T01:21:03;12.57;;;11.23;;
4023;SDS011;2026;51.002;13.668;2022-08-14T01:26:13;13.17;;;11.77;;
4023;SDS011;2026;51.002;13.668;2022-08-14T01:31:36;15.40;;;12.60;;
4023;SDS011;2026;51.002;13.668;2022-08-14T01:36:41;13.57;;;12.17;;
4023;SDS011;2026;51.002;13.668;2022-08-14T01:41:47;12.73;;;11.40;;
4023;SDS011;2026;51.002;13.668;2022-08-14T01:46:59;14.90;;;13.00;;
4023;SDS011;2026;51.002;13.668;2022-08-14T01:52:06;13.93;;;12.40;;
4023;SDS011;2026;51.002;13.668;2022-08-14T01:57:32;13.33;;;11.90;;
4023;SDS011;2026;51.002;13.668;2022-08-14T02:02:58;15.23;;;13.57;;
4023;SDS011;2026;51.002;13.668;2022-08-14T02:08:01;14.40;;;12.83;;
4023;SDS011;2026;51.002;13.668;2022-08-14T02:13:11;16.97;;;15.17;;
4023;SDS011;2026;51.002;13.668;2022-08-14T02:18:17;14.40;;;12.60;;
4023;SDS011;2026;51.002;13.668;2022-08-14T02:23:20;15.97;;;13.40;;
4023;SDS011;2026;51.002;13.668;2022-08-14T02:28:34;19.10;;;15.03;;
4023;SDS011;2026;51.002;13.668;2022-08-14T02:33:57;17.43;;;14.00;;
4023;SDS011;2026;51.002;13.668;2022-08-14T02:39:00;16.17;;;13.80;;
4023;SDS011;2026;51.002;13.668;2022-08-14T02:44:06;16.73;;;13.33;;
4023;SDS011;2026;51.002;13.668;2022-08-14T02:49:11;21.43;;;16.83;;
4023;SDS011;2026;51.002;13.668;2022-08-14T02:54:14;26.90;;;21.40;;
4023;SDS011;2026;51.002;13.668;2022-08-14T02:59:21;28.50;;;21.53;;
4023;SDS011;2026;51.002;13.668;2022-08-14T03:04:34;43.30;;;33.10;;
4023;SDS011;2026;51.002;13.668;2022-08-14T03:09:40;46.00;;;31.27;;
4023;SDS011;2026;51.002;13.668;2022-08-14T03:15:05;48.83;;;36.53;;
4023;SDS011;2026;51.002;13.668;2022-08-14T03:20:19;59.57;;;42.77;;
4023;SDS011;2026;51.002;13.668;2022-08-14T03:25:23;53.63;;;39.57;;
4023;SDS011;2026;51.002;13.668;2022-08-14T03:30:27;57.50;;;41.07;;
4023;SDS011;2026;51.002;13.668;2022-08-14T03:35:41;58.90;;;42.70;;
4023;SDS011;2026;51.002;13.668;2022-08-14T03:41:04;40.43;;;30.40;;
4023;SDS011;2026;51.002;13.668;2022-08-14T03:46:16;40.80;;;31.57;;
4023;SDS011;2026;51.002;13.668;2022-08-14T03:51:40;47.93;;;31.07;;
4023;SDS011;2026;51.002;13.668;2022-08-14T03:56:43;44.33;;;31.60;;
4023;SDS011;2026;51.002;13.668;2022-08-14T04:01:52;37.67;;;28.50;;
4023;SDS011;2026;51.002;13.668;2022-08-14T04:07:02;39.37;;;27.97;;
4023;SDS011;2026;51.002;13.668;2022-08-14T04:12:05;37.97;;;27.37;;
4023;SDS011;2026;51.002;13.668;2022-08-14T04:17:15;40.60;;;27.83;;
4023;SDS011;2026;51.002;13.668;2022-08-14T04:22:18;34.60;;;26.50;;
4023;SDS011;2026;51.002;13.668;2022-08-14T04:27:22;31.97;;;24.23;;
4023;SDS011;2026;51.002;13.668;2022-08-14T04:32:30;30.40;;;22.53;;
4023;SDS011;2026;51.002;13.668;2022-08-14T04:37:54;28.50;;;21.80;;
4023;SDS011;2026;51.002;13.668;2022-08-14T04:43:34;23.60;;;19.80;;
4023;SDS011;2026;51.002;13.668;2022-08-14T04:48:41;22.27;;;18.47;;
4023;SDS011;2026;51.002;13.668;2022-08-14T04:53:55;22.57;;;18.40;;
4023;SDS011;2026;51.002;13.668;2022-08-14T04:59:00;24.80;;;19.10;;
4023;SDS011;2026;51.002;13.668;2022-08-14T05:04:12;24.57;;;19.43;;
4023;SDS011;2026;51.002;13.668;2022-08-14T05:09:20;22.47;;;18.67;;
4023;SDS011;2026;51.002;13.668;2022-08-14T05:14:24;17.97;;;16.10;;
4023;SDS011;2026;51.002;13.668;2022-08-14T05:19:48;21.70;;;16.70;;
4023;SDS011;2026;51.002;13.668;2022-08-14T05:25:11;19.40;;;17.07;;
4023;SDS011;2026;51.002;13.668;2022-08-14T05:30:15;20.77;;;16.87;;
4023;SDS011;2026;51.002;13.668;2022-08-14T05:35:21;18.77;;;15.80;;
4023;SDS011;2026;51.002;13.668;2022-08-14T05:40:25;20.03;;;15.80;;
4023;SDS011;2026;51.002;13.668;2022-08-14T05:45:28;14.93;;;13.20;;
4023;SDS011;2026;51.002;13.668;2022-08-14T05:50:33;17.67;;;14.73;;
4023;SDS011;2026;51.002;13.668;2022-08-14T05:55:38;16.10;;;14.27;;
4023;SDS011;2026;51.002;13.668;2022-08-14T06:00:45;14.80;;;13.30;;
4023;SDS011;2026;51.002;13.668;2022-08-14T06:05:52;15.43;;;13.80;;
4023;SDS011;2026;51.002;13.668;2022-08-14T06:10:57;16.43;;;14.40;;
4023;SDS011;2026;51.002;13.668;2022-08-14T06:16:04;18.30;;;13.40;;
4023;SDS011;2026;51.002;13.668;2022-08-14T06:21:11;15.50;;;13.50;;
4023;SDS011;2026;51.002;13.668;2022-08-14T06:26:17;17.00;;;13.88;;
4023;SDS011;2026;51.002;13.668;2022-08-14T06:31:22;16.38;;;14.77;;
4023;SDS011;2026;51.002;13.668;2022-08-14T06:36:27;17.60;;;14.03;;
4023;SDS011;2026;51.002;13.668;2022-08-14T06:41:30;15.30;;;13.70;;
4023;SDS011;2026;51.002;13.668;2022-08-14T06:46:53;14.73;;;13.25;;
4023;SDS011;2026;51.002;13.668;2022-08-14T06:51:58;16.60;;;14.55;;
4023;SDS011;2026;51.002;13.668;2022-08-14T06:57:02;16.83;;;14.85;;
4023;SDS011;2026;51.002;13.668;2022-08-14T07:02:07;15.95;;;13.43;;
4023;SDS011;2026;51.002;13.668;2022-08-14T07:07:35;16.75;;;14.07;;
4023;SDS011;2026;51.002;13.668;2022-08-14T07:12:39;16.50;;;13.50;;
4023;SDS011;2026;51.002;13.668;2022-08-14T07:18:03;13.32;;;12.02;;
4023;SDS011;2026;51.002;13.668;2022-08-14T07:23:11;13.50;;;11.55;;
4023;SDS011;2026;51.002;13.668;2022-08-14T07:28:22;14.32;;;12.82;;
4023;SDS011;2026;51.002;13.668;2022-08-14T07:33:26;13.18;;;11.75;;
4023;SDS011;2026;51.002;13.668;2022-08-14T07:38:32;12.80;;;11.55;;
4023;SDS011;2026;51.002;13.668;2022-08-14T07:43:38;11.93;;;10.73;;
4023;SDS011;2026;51.002;13.668;2022-08-14T07:48:42;13.18;;;11.82;;
4023;SDS011;2026;51.002;13.668;2022-08-14T07:53:49;15.63;;;12.00;;
4023;SDS011;2026;51.002;13.668;2022-08-14T07:58:57;12.00;;;10.80;;
4023;SDS011;2026;51.002;13.668;2022-08-14T08:04:01;13.00;;;11.68;;
4023;SDS011;2026;51.002;13.668;2022-08-14T08:09:18;14.32;;;12.80;;
4023;SDS011;2026;51.002;13.668;2022-08-14T08:14:33;14.48;;;12.93;;
4023;SDS011;2026;51.002;13.668;2022-08-14T08:19:56;13.95;;;12.57;;
4023;SDS011;2026;51.002;13.668;2022-08-14T08:25:01;15.45;;;13.15;;
4023;SDS011;2026;51.002;13.668;2022-08-14T08:30:14;16.77;;;14.35;;
4023;SDS011;2026;51.002;13.668;2022-08-14T08:35:19;14.90;;;13.43;;
4023;SDS011;2026;51.002;13.668;2022-08-14T08:40:25;16.38;;;13.32;;
4023;SDS011;2026;51.002;13.668;2022-08-14T08:45:33;14.57;;;13.18;;
4023;SDS011;2026;51.002;13.668;2022-08-14T08:50:38;16.35;;;12.98;;
4023;SDS011;2026;51.002;13.668;2022-08-14T08:55:42;14.00;;;12.50;;
4023;SDS011;2026;51.002;13.668;2022-08-14T09:00:47;13.98;;;12.60;;
4023;SDS011;2026;51.002;13.668;2022-08-14T09:05:56;14.13;;;12.65;;
4023;SDS011;2026;51.002;13.668;2022-08-14T09:11:06;13.40;;;12.10;;
4023;SDS011;2026;51.002;13.668;2022-08-14T09:16:22;13.48;;;12.27;;
4023;SDS011;2026;51.002;13.668;2022-08-14T09:21:26;13.80;;;12.50;;
4023;SDS011;2026;51.002;13.668;2022-08-14T09:26:33;11.93;;;10.82;;
4023;SDS011;2026;51.002;13.668;2022-08-14T09:31:39;13.13;;;10.52;;
4023;SDS011;2026;51.002;13.668;2022-08-14T09:37:00;11.30;;;10.18;;
4023;SDS011;2026;51.002;13.668;2022-08-14T09:42:25;10.90;;;9.90;;
4023;SDS011;2026;51.002;13.668;2022-08-14T09:47:46;10.27;;;9.35;;
4023;SDS011;2026;51.002;13.668;2022-08-14T09:52:54;10.20;;;9.30;;
4023;SDS011;2026;51.002;13.668;2022-08-14T09:58:11;10.85;;;9.75;;
4023;SDS011;2026;51.002;13.668;2022-08-14T10:03:24;11.65;;;10.57;;
4023;SDS011;2026;51.002;13.668;2022-08-14T10:08:40;12.23;;;10.90;;
4023;SDS011;2026;51.002;13.668;2022-08-14T10:13:47;10.35;;;9.35;;
4023;SDS011;2026;51.002;13.668;2022-08-14T10:19:03;11.23;;;9.77;;
4023;SDS011;2026;51.002;13.668;2022-08-14T10:24:10;10.63;;;9.68;;
4023;SDS011;2026;51.002;13.668;2022-08-14T10:29:28;9.50;;;8.68;;
4023;SDS011;2026;51.002;13.668;2022-08-14T10:34:33;10.45;;;9.55;;
4023;SDS011;2026;51.002;13.668;2022-08-14T10:39:42;11.80;;;9.55;;
4023;SDS011;2026;51.002;13.668;2022-08-14T10:45:18;10.13;;;9.13;;
4023;SDS011;2026;51.002;13.668;2022-08-14T10:50:28;8.82;;;7.97;;
4023;SDS011;2026;51.002;13.668;2022-08-14T10:55:33;10.98;;;8.30;;
4023;SDS011;2026;51.002;13.668;2022-08-14T11:00:54;7.97;;;7.35;;
4023;SDS011;2026;51.002;13.668;2022-08-14T11:05:58;9.57;;;8.52;;
4023;SDS011;2026;51.002;13.668;2022-08-14T11:11:15;9.38;;;8.27;;
4023;SDS011;2026;51.002;13.668;2022-08-14T11:16:20;9.20;;;7.55;;
4023;SDS011;2026;51.002;13.668;2022-08-14T11:21:29;8.57;;;7.78;;
4023;SDS011;2026;51.002;13.668;2022-08-14T11:26:39;9.45;;;8.55;;
4023;SDS011;2026;51.002;13.668;2022-08-14T11:31:46;9.43;;;8.43;;
4023;SDS011;2026;51.002;13.668;2022-08-14T11:36:53;9.57;;;8.23;;
4023;SDS011;2026;51.002;13.668;2022-08-14T11:42:18;9.10;;;8.15;;
4023;SDS011;2026;51.002;13.668;2022-08-14T11:47:45;9.73;;;8.73;;
4023;SDS011;2026;51.002;13.668;2022-08-14T11:53:17;9.38;;;8.02;;
4023;SDS011;2026;51.002;13.668;2022-08-14T11:58:26;9.23;;;8.32;;
4023;SDS011;2026;51.002;13.668;2022-08-14T12:03:36;8.63;;;7.85;;
4023;SDS011;2026;51.002;13.668;2022-08-14T12:08:57;9.88;;;8.55;;
4023;SDS011;2026;51.002;13.668;2022-08-14T12:14:05;9.50;;;7.80;;
4023;SDS011;2026;51.002;13.668;2022-08-14T12:19:31;9.00;;;8.05;;
4023;SDS011;2026;51.002;13.668;2022-08-14T12:24:51;8.95;;;8.05;;
4023;SDS011;2026;51.002;13.668;2022-08-14T12:29:55;8.82;;;7.93;;
4023;SDS011;2026;51.002;13.668;2022-08-14T12:34:59;7.80;;;7.20;;
4023;SDS011;2026;51.002;13.668;2022-08-14T12:40:12;8.88;;;8.00;;
4023;SDS011;2026;51.002;13.668;2022-08-14T12:45:28;8.32;;;7.63;;
4023;SDS011;2026;51.002;13.668;2022-08-14T12:50:35;8.88;;;7.97;;
4023;SDS011;2026;51.002;13.668;2022-08-14T12:55:42;12.88;;;8.32;;
4023;SDS011;2026;51.002;13.668;2022-08-14T13:01:06;9.45;;;8.65;;
4023;SDS011;2026;51.002;13.668;2022-08-14T13:06:22;9.32;;;8.52;;
4023;SDS011;2026;51.002;13.668;2022-08-14T13:11:28;9.80;;;9.00;;
4023;SDS011;2026;51.002;13.668;2022-08-14T13:16:41;9.93;;;8.93;;
4023;SDS011;2026;51.002;13.668;2022-08-14T13:21:52;9.80;;;8.95;;
4023;SDS011;2026;51.002;13.668;2022-08-14T13:27:06;9.85;;;8.85;;
4023;SDS011;2026;51.002;13.668;2022-08-14T13:32:11;9.93;;;9.02;;
4023;SDS011;2026;51.002;13.668;2022-08-14T13:37:17;10.00;;;9.10;;
4023;SDS011;2026;51.002;13.668;2022-08-14T13:42:23;10.60;;;9.30;;
4023;SDS011;2026;51.002;13.668;2022-08-14T13:47:35;9.82;;;8.85;;
4023;SDS011;2026;51.002;13.668;2022-08-14T13:52:48;10.30;;;9.10;;
4023;SDS011;2026;51.002;13.668;2022-08-14T13:58:00;10.13;;;9.25;;
4023;SDS011;2026;51.002;13.668;2022-08-14T14:03:05;11.00;;;9.23;;
4023;SDS011;2026;51.002;13.668;2022-08-14T14:08:12;10.48;;;8.27;;
4023;SDS011;2026;51.002;13.668;2022-08-14T14:13:37;10.48;;;9.48;;
4023;SDS011;2026;51.002;13.668;2022-08-14T14:18:46;10.20;;;9.20;;
4023;SDS011;2026;51.002;13.668;2022-08-14T14:23:54;12.32;;;8.98;;
4023;SDS011;2026;51.002;13.668;2022-08-14T14:28:59;10.93;;;9.73;;
4023;SDS011;2026;51.002;13.668;2022-08-14T14:34:03;9.43;;;8.52;;
4023;SDS011;2026;51.002;13.668;2022-08-14T14:39:29;11.20;;;9.43;;
4023;SDS011;2026;51.002;13.668;2022-08-14T14:44:54;10.65;;;9.57;;
4023;SDS011;2026;51.002;13.668;2022-08-14T14:50:06;10.75;;;9.65;;
4023;SDS011;2026;51.002;13.668;2022-08-14T14:55:12;14.88;;;10.90;;
4023;SDS011;2026;51.002;13.668;2022-08-14T15:00:18;12.88;;;11.57;;
4023;SDS011;2026;51.002;13.668;2022-08-14T15:05:21;13.27;;;11.25;;
4023;SDS011;2026;51.002;13.668;2022-08-14T15:10:30;13.77;;;11.45;;
4023;SDS011;2026;51.002;13.668;2022-08-14T15:15:40;11.18;;;10.18;;
4023;SDS011;2026;51.002;13.668;2022-08-14T15:20:44;12.02;;;10.90;;
4023;SDS011;2026;51.002;13.668;2022-08-14T15:25:48;14.45;;;13.23;;
4023;SDS011;2026;51.002;13.668;2022-08-14T15:30:54;12.43;;;11.13;;
4023;SDS011;2026;51.002;13.668;2022-08-14T15:35:59;11.93;;;10.82;;
4023;SDS011;2026;51.002;13.668;2022-08-14T15:41:04;12.27;;;11.13;;
4023;SDS011;2026;51.002;13.668;2022-08-14T15:46:09;11.68;;;10.20;;
4023;SDS011;2026;51.002;13.668;2022-08-14T15:51:32;11.65;;;10.60;;
4023;SDS011;2026;51.002;13.668;2022-08-14T15:56:44;11.85;;;10.65;;
4023;SDS011;2026;51.002;13.668;2022-08-14T16:01:48;11.38;;;10.27;;
4023;SDS011;2026;51.002;13.668;2022-08-14T16:06:55;12.27;;;10.25;;
4023;SDS011;2026;51.002;13.668;2022-08-14T16:12:00;12.27;;;11.18;;
4023;SDS011;2026;51.002;13.668;2022-08-14T16:17:04;18.45;;;16.80;;
4023;SDS011;2026;51.002;13.668;2022-08-14T16:22:09;13.23;;;11.95;;
4023;SDS011;2026;51.002;13.668;2022-08-14T16:27:35;12.38;;;11.27;;
4023;SDS011;2026;51.002;13.668;2022-08-14T16:32:43;12.18;;;10.35;;
4023;SDS011;2026;51.002;13.668;2022-08-14T16:37:57;11.40;;;10.35;;
4023;SDS011;2026;51.002;13.668;2022-08-14T16:43:22;14.95;;;9.93;;
4023;SDS011;2026;51.002;13.668;2022-08-14T16:48:27;13.05;;;9.50;;
4023;SDS011;2026;51.002;13.668;2022-08-14T16:53:50;12.45;;;11.25;;
4023;SDS011;2026;51.002;13.668;2022-08-14T16:59:06;22.30;;;17.63;;
4023;SDS011;2026;51.002;13.668;2022-08-14T17:04:13;15.40;;;13.90;;
4023;SDS011;2026;51.002;13.668;2022-08-14T17:09:36;13.98;;;12.48;;
4023;SDS011;2026;51.002;13.668;2022-08-14T17:14:56;13.20;;;12.00;;
4023;SDS011;2026;51.002;13.668;2022-08-14T17:20:11;9.98;;;8.98;;
4023;SDS011;2026;51.002;13.668;2022-08-14T17:25:36;10.43;;;9.40;;
4023;SDS011;2026;51.002;13.668;2022-08-14T17:30:50;28.15;;;25.13;;
4023;SDS011;2026;51.002;13.668;2022-08-14T17:36:07;24.17;;;19.42;;
4023;SDS011;2026;51.002;13.668;2022-08-14T17:41:22;13.02;;;11.77;;
4023;SDS011;2026;51.002;13.668;2022-08-14T17:46:35;11.60;;;9.85;;
4023;SDS011;2026;51.002;13.668;2022-08-14T17:51:54;10.02;;;9.13;;
4023;SDS011;2026;51.002;13.668;2022-08-14T17:57:03;12.02;;;9.82;;
4023;SDS011;2026;51.002;13.668;2022-08-14T18:02:15;12.68;;;9.38;;
4023;SDS011;2026;51.002;13.668;2022-08-14T18:07:21;10.25;;;9.13;;
4023;SDS011;2026;51.002;13.668;2022-08-14T18:12:44;9.68;;;8.85;;
4023;SDS011;2026;51.002;13.668;2022-08-14T18:17:50;10.25;;;9.25;;
4023;SDS011;2026;51.002;13.668;2022-08-14T18:22:54;11.57;;;9.88;;
4023;SDS011;2026;51.002;13.668;2022-08-14T18:27:58;11.93;;;10.40;;
4023;SDS011;2026;51.002;13.668;2022-08-14T18:33:18;12.32;;;11.20;;
4023;SDS011;2026;51.002;13.668;2022-08-14T18:38:23;17.40;;;14.70;;
4023;SDS011;2026;51.002;13.668;2022-08-14T18:43:48;14.40;;;12.90;;
4023;SDS011;2026;51.002;13.668;2022-08-14T18:54:27;18.90;;;15.95;;
4023;SDS011;2026;51.002;13.668;2022-08-14T18:59:35;21.92;;;15.93;;
4023;SDS011;2026;51.002;13.668;2022-08-14T19:04:45;18.40;;;14.45;;
4023;SDS011;2026;51.002;13.668;2022-08-14T19:09:52;16.42;;;13.73;;
4023;SDS011;2026;51.002;13.668;2022-08-14T19:15:05;12.77;;;11.55;;
4023;SDS011;2026;51.002;13.668;2022-08-14T19:20:11;14.20;;;12.63;;
4023;SDS011;2026;51.002;13.668;2022-08-14T19:36:45;15.90;;;12.25;;
4023;SDS011;2026;51.002;13.668;2022-08-14T19:42:06;12.35;;;11.10;;
4023;SDS011;2026;51.002;13.668;2022-08-14T19:47:13;14.45;;;12.20;;
4023;SDS011;2026;51.002;13.668;2022-08-14T19:52:21;13.50;;;12.07;;
4023;SDS011;2026;51.002;13.668;2022-08-14T19:57:26;11.88;;;10.75;;
4023;SDS011;2026;51.002;13.668;2022-08-14T20:02:31;15.48;;;11.80;;
4023;SDS011;2026;51.002;13.668;2022-08-14T20:07:39;10.60;;;9.50;;
4023;SDS011;2026;51.002;13.668;2022-08-14T20:13:02;11.10;;;9.95;;
4023;SDS011;2026;51.002;13.668;2022-08-14T20:18:07;12.00;;;9.85;;
4023;SDS011;2026;51.002;13.668;2022-08-14T20:23:32;14.20;;;10.93;;
4023;SDS011;2026;51.002;13.668;2022-08-14T20:28:39;11.15;;;10.05;;
4023;SDS011;2026;51.002;13.668;2022-08-14T20:34:01;11.70;;;10.32;;
4023;SDS011;2026;51.002;13.668;2022-08-14T20:39:08;19.88;;;10.30;;
4023;SDS011;2026;51.002;13.668;2022-08-14T20:44:18;11.75;;;10.15;;
4023;SDS011;2026;51.002;13.668;2022-08-14T20:49:39;12.07;;;10.82;;
4023;SDS011;2026;51.002;13.668;2022-08-14T20:54:43;12.48;;;11.15;;
4023;SDS011;2026;51.002;13.668;2022-08-14T20:59:51;13.23;;;10.53;;
4023;SDS011;2026;51.002;13.668;2022-08-14T21:05:00;14.07;;;11.30;;
4023;SDS011;2026;51.002;13.668;2022-08-14T21:10:19;13.70;;;11.30;;
4023;SDS011;2026;51.002;13.668;2022-08-14T21:15:36;12.77;;;11.50;;
4023;SDS011;2026;51.002;13.668;2022-08-14T21:20:40;12.80;;;11.50;;
4023;SDS011;2026;51.002;13.668;2022-08-14T21:25:46;12.50;;;11.20;;
4023;SDS011;2026;51.002;13.668;2022-08-14T21:30:49;12.50;;;11.30;;
4023;SDS011;2026;51.002;13.668;2022-08-14T21:35:57;12.90;;;11.50;;
4023;SDS011;2026;51.002;13.668;2022-08-14T21:41:09;13.10;;;11.70;;
4023;SDS011;2026;51.002;13.668;2022-08-14T21:46:44;13.17;;;11.77;;
4023;SDS011;2026;51.002;13.668;2022-08-14T21:51:51;11.87;;;10.63;;
4023;SDS011;2026;51.002;13.668;2022-08-14T21:57:17;14.33;;;12.33;;
4023;SDS011;2026;51.002;13.668;2022-08-14T22:02:45;15.50;;;12.80;;
4023;SDS011;2026;51.002;13.668;2022-08-14T22:07:56;12.70;;;11.37;;
4023;SDS011;2026;51.002;13.668;2022-08-14T22:13:02;12.93;;;11.33;;
4023;SDS011;2026;51.002;13.668;2022-08-14T22:18:06;14.23;;;12.33;;
4023;SDS011;2026;51.002;13.668;2022-08-14T22:23:23;16.63;;;11.40;;
4023;SDS011;2026;51.002;13.668;2022-08-14T22:28:27;13.30;;;11.87;;
4023;SDS011;2026;51.002;13.668;2022-08-14T22:33:33;12.37;;;11.03;;
4023;SDS011;2026;51.002;13.668;2022-08-14T22:38:39;15.77;;;12.17;;
4023;SDS011;2026;51.002;13.668;2022-08-14T22:43:50;13.40;;;12.10;;
4023;SDS011;2026;51.002;13.668;2022-08-14T22:48:59;12.93;;;11.60;;
4023;SDS011;2026;51.002;13.668;2022-08-14T22:54:24;14.13;;;12.30;;
4023;SDS011;2026;51.002;13.668;2022-08-14T22:59:48;15.00;;;12.70;;
4023;SDS011;2026;51.002;13.668;2022-08-14T23:04:51;14.97;;;12.17;;
4023;SDS011;2026;51.002;13.668;2022-08-14T23:09:58;13.23;;;11.50;;
4023;SDS011;2026;51.002;13.668;2022-08-14T23:15:22;12.50;;;11.30;;
4023;SDS011;2026;51.002;13.668;2022-08-14T23:20:30;13.60;;;12.20;;
4023;SDS011;2026;51.002;13.668;2022-08-14T23:25:38;15.20;;;12.70;;
4023;SDS011;2026;51.002;13.668;2022-08-14T23:31:02;14.37;;;12.97;;
4023;SDS011;2026;51.002;13.668;2022-08-14T23:36:09;13.40;;;12.10;;
4023;SDS011;2026;51.002;13.668;2022-08-14T23:41:34;15.40;;;12.23;;
4023;SDS011;2026;51.002;13.668;2022-08-14T23:46:53;13.20;;;11.77;;
4023;SDS011;2026;51.002;13.668;2022-08-14T23:52:06;13.83;;;12.17;;
4023;SDS011;2026;51.002;13.668;2022-08-14T23:57:31;15.30;;;12.87;;
